sensor_id;sensor_type;location;lat;lon;timestamp;P1;durP1;ratioP1;P2;durP2;ratioP2
24557;SDS011;12726;49.148;8.582;2024-02-14T00:00:11;5.05;;;2.75;;
24557;SDS011;12726;49.148;8.582;2024-02-14T00:02:58;5.63;;;2.88;;
24557;SDS011;12726;49.148;8.582;2024-02-14T00:05:44;5.28;;;2.72;;
24557;SDS011;12726;49.148;8.582;2024-02-14T00:08:30;5.78;;;2.70;;
24557;SDS011;12726;49.148;8.582;2024-02-14T00:11:15;5.68;;;2.70;;
24557;SDS011;12726;49.148;8.582;2024-02-14T00:14:01;4.95;;;2.45;;
24557;SDS011;12726;49.148;8.582;2024-02-14T00:16:46;5.05;;;2.60;;
24557;SDS011;12726;49.148;8.582;2024-02-14T00:19:31;5.55;;;3.10;;
24557;SDS011;12726;49.148;8.582;2024-02-14T00:22:18;6.07;;;3.13;;
24557;SDS011;12726;49.148;8.582;2024-02-14T00:25:04;5.03;;;3.20;;
24557;SDS011;12726;49.148;8.582;2024-02-14T00:27:49;4.68;;;2.70;;
24557;SDS011;12726;49.148;8.582;2024-02-14T00:30:35;4.68;;;3.00;;
24557;SDS011;12726;49.148;8.582;2024-02-14T00:33:20;7.60;;;2.88;;
24557;SDS011;12726;49.148;8.582;2024-02-14T00:36:06;7.85;;;2.88;;
24557;SDS011;12726;49.148;8.582;2024-02-14T00:38:52;8.48;;;3.28;;
24557;SDS011;12726;49.148;8.582;2024-02-14T00:41:38;5.90;;;3.65;;
24557;SDS011;12726;49.148;8.582;2024-02-14T00:44:23;7.70;;;3.78;;
24557;SDS011;12726;49.148;8.582;2024-02-14T00:47:09;8.75;;;3.63;;
24557;SDS011;12726;49.148;8.582;2024-02-14T00:49:54;7.30;;;3.63;;
24557;SDS011;12726;49.148;8.582;2024-02-14T00:52:39;7.57;;;3.47;;
24557;SDS011;12726;49.148;8.582;2024-02-14T00:55:26;7.43;;;3.25;;
24557;SDS011;12726;49.148;8.582;2024-02-14T00:58:11;7.65;;;3.08;;
24557;SDS011;12726;49.148;8.582;2024-02-14T01:00:56;5.93;;;3.47;;
24557;SDS011;12726;49.148;8.582;2024-02-14T01:03:42;4.70;;;3.05;;
24557;SDS011;12726;49.148;8.582;2024-02-14T01:06:27;7.72;;;3.42;;
24557;SDS011;12726;49.148;8.582;2024-02-14T01:09:14;7.13;;;2.95;;
24557;SDS011;12726;49.148;8.582;2024-02-14T01:12:01;4.65;;;2.42;;
24557;SDS011;12726;49.148;8.582;2024-02-14T01:14:48;7.85;;;3.67;;
24557;SDS011;12726;49.148;8.582;2024-02-14T01:17:33;8.73;;;3.15;;
24557;SDS011;12726;49.148;8.582;2024-02-14T01:20:21;5.75;;;3.22;;
24557;SDS011;12726;49.148;8.582;2024-02-14T01:23:07;5.88;;;3.00;;
24557;SDS011;12726;49.148;8.582;2024-02-14T01:25:53;7.70;;;2.78;;
24557;SDS011;12726;49.148;8.582;2024-02-14T01:28:40;6.30;;;3.17;;
24557;SDS011;12726;49.148;8.582;2024-02-14T01:31:27;6.78;;;2.92;;
24557;SDS011;12726;49.148;8.582;2024-02-14T01:34:13;5.85;;;3.17;;
24557;SDS011;12726;49.148;8.582;2024-02-14T01:36:58;7.05;;;3.00;;
24557;SDS011;12726;49.148;8.582;2024-02-14T01:39:43;7.47;;;3.28;;
24557;SDS011;12726;49.148;8.582;2024-02-14T01:42:29;5.32;;;2.80;;
24557;SDS011;12726;49.148;8.582;2024-02-14T01:45:15;5.85;;;3.20;;
24557;SDS011;12726;49.148;8.582;2024-02-14T01:48:01;6.07;;;2.78;;
24557;SDS011;12726;49.148;8.582;2024-02-14T01:50:47;4.47;;;2.70;;
24557;SDS011;12726;49.148;8.582;2024-02-14T01:53:32;7.35;;;2.92;;
24557;SDS011;12726;49.148;8.582;2024-02-14T01:56:18;7.07;;;3.05;;
24557;SDS011;12726;49.148;8.582;2024-02-14T01:59:03;4.60;;;2.47;;
24557;SDS011;12726;49.148;8.582;2024-02-14T02:01:51;4.72;;;2.40;;
24557;SDS011;12726;49.148;8.582;2024-02-14T02:04:36;7.18;;;2.33;;
24557;SDS011;12726;49.148;8.582;2024-02-14T02:07:22;5.50;;;2.55;;
24557;SDS011;12726;49.148;8.582;2024-02-14T02:10:09;4.30;;;2.20;;
24557;SDS011;12726;49.148;8.582;2024-02-14T02:12:57;5.03;;;2.45;;
24557;SDS011;12726;49.148;8.582;2024-02-14T02:15:44;5.70;;;2.72;;
24557;SDS011;12726;49.148;8.582;2024-02-14T02:18:35;4.90;;;2.30;;
24557;SDS011;12726;49.148;8.582;2024-02-14T02:21:20;4.95;;;2.42;;
24557;SDS011;12726;49.148;8.582;2024-02-14T02:24:08;4.22;;;2.30;;
24557;SDS011;12726;49.148;8.582;2024-02-14T02:26:53;3.35;;;2.00;;
24557;SDS011;12726;49.148;8.582;2024-02-14T02:29:40;4.53;;;2.90;;
24557;SDS011;12726;49.148;8.582;2024-02-14T02:32:26;4.90;;;2.20;;
24557;SDS011;12726;49.148;8.582;2024-02-14T02:35:11;2.28;;;1.73;;
24557;SDS011;12726;49.148;8.582;2024-02-14T02:37:57;3.67;;;2.05;;
24557;SDS011;12726;49.148;8.582;2024-02-14T02:40:43;4.60;;;2.28;;
24557;SDS011;12726;49.148;8.582;2024-02-14T02:43:29;2.95;;;1.70;;
24557;SDS011;12726;49.148;8.582;2024-02-14T02:46:14;5.10;;;2.13;;
24557;SDS011;12726;49.148;8.582;2024-02-14T02:48:59;5.25;;;2.05;;
24557;SDS011;12726;49.148;8.582;2024-02-14T02:51:45;3.30;;;1.80;;
24557;SDS011;12726;49.148;8.582;2024-02-14T02:54:31;3.15;;;1.70;;
24557;SDS011;12726;49.148;8.582;2024-02-14T02:57:18;4.18;;;1.98;;
24557;SDS011;12726;49.148;8.582;2024-02-14T03:00:03;3.10;;;2.03;;
24557;SDS011;12726;49.148;8.582;2024-02-14T03:02:52;3.83;;;2.22;;
24557;SDS011;12726;49.148;8.582;2024-02-14T03:05:37;3.15;;;1.85;;
24557;SDS011;12726;49.148;8.582;2024-02-14T03:08:25;4.95;;;2.20;;
24557;SDS011;12726;49.148;8.582;2024-02-14T03:11:10;4.03;;;2.53;;
24557;SDS011;12726;49.148;8.582;2024-02-14T03:13:57;4.43;;;2.25;;
24557;SDS011;12726;49.148;8.582;2024-02-14T03:16:43;5.10;;;2.67;;
24557;SDS011;12726;49.148;8.582;2024-02-14T03:19:28;3.95;;;2.20;;
24557;SDS011;12726;49.148;8.582;2024-02-14T03:22:20;5.57;;;2.35;;
24557;SDS011;12726;49.148;8.582;2024-02-14T03:25:06;7.25;;;2.33;;
24557;SDS011;12726;49.148;8.582;2024-02-14T03:27:51;4.47;;;2.05;;
24557;SDS011;12726;49.148;8.582;2024-02-14T03:30:42;9.73;;;2.55;;
24557;SDS011;12726;49.148;8.582;2024-02-14T03:33:27;4.57;;;2.00;;
24557;SDS011;12726;49.148;8.582;2024-02-14T03:36:12;5.15;;;2.33;;
24557;SDS011;12726;49.148;8.582;2024-02-14T03:38:58;4.65;;;2.50;;
24557;SDS011;12726;49.148;8.582;2024-02-14T03:41:47;5.68;;;2.10;;
24557;SDS011;12726;49.148;8.582;2024-02-14T03:44:33;5.03;;;2.15;;
24557;SDS011;12726;49.148;8.582;2024-02-14T03:47:20;6.20;;;2.50;;
24557;SDS011;12726;49.148;8.582;2024-02-14T03:50:05;3.15;;;1.98;;
24557;SDS011;12726;49.148;8.582;2024-02-14T03:52:51;5.45;;;2.25;;
24557;SDS011;12726;49.148;8.582;2024-02-14T03:55:37;4.43;;;2.03;;
24557;SDS011;12726;49.148;8.582;2024-02-14T03:58:22;5.05;;;2.20;;
24557;SDS011;12726;49.148;8.582;2024-02-14T04:01:07;4.15;;;2.22;;
24557;SDS011;12726;49.148;8.582;2024-02-14T04:03:54;7.65;;;2.20;;
24557;SDS011;12726;49.148;8.582;2024-02-14T04:06:40;4.15;;;2.35;;
24557;SDS011;12726;49.148;8.582;2024-02-14T04:09:25;4.13;;;2.30;;
24557;SDS011;12726;49.148;8.582;2024-02-14T04:12:13;5.27;;;2.10;;
24557;SDS011;12726;49.148;8.582;2024-02-14T04:14:59;4.95;;;2.20;;
24557;SDS011;12726;49.148;8.582;2024-02-14T04:17:44;6.35;;;1.75;;
24557;SDS011;12726;49.148;8.582;2024-02-14T04:20:31;4.07;;;2.30;;
24557;SDS011;12726;49.148;8.582;2024-02-14T04:23:16;2.63;;;1.67;;
24557;SDS011;12726;49.148;8.582;2024-02-14T04:26:02;4.13;;;1.88;;
24557;SDS011;12726;49.148;8.582;2024-02-14T04:28:47;5.57;;;2.05;;
24557;SDS011;12726;49.148;8.582;2024-02-14T04:31:35;6.78;;;2.00;;
24557;SDS011;12726;49.148;8.582;2024-02-14T04:34:20;4.85;;;2.03;;
24557;SDS011;12726;49.148;8.582;2024-02-14T04:37:07;5.20;;;1.98;;
24557;SDS011;12726;49.148;8.582;2024-02-14T04:39:56;5.30;;;1.90;;
24557;SDS011;12726;49.148;8.582;2024-02-14T04:42:41;7.45;;;2.55;;
24557;SDS011;12726;49.148;8.582;2024-02-14T04:45:30;4.72;;;2.20;;
24557;SDS011;12726;49.148;8.582;2024-02-14T04:48:16;4.28;;;2.10;;
24557;SDS011;12726;49.148;8.582;2024-02-14T04:51:01;6.18;;;2.28;;
24557;SDS011;12726;49.148;8.582;2024-02-14T04:53:48;3.40;;;2.22;;
24557;SDS011;12726;49.148;8.582;2024-02-14T04:56:33;4.40;;;2.50;;
24557;SDS011;12726;49.148;8.582;2024-02-14T04:59:19;8.88;;;2.60;;
24557;SDS011;12726;49.148;8.582;2024-02-14T05:02:04;5.70;;;2.60;;
24557;SDS011;12726;49.148;8.582;2024-02-14T05:04:49;5.95;;;2.55;;
24557;SDS011;12726;49.148;8.582;2024-02-14T05:07:35;5.25;;;2.20;;
24557;SDS011;12726;49.148;8.582;2024-02-14T05:10:21;5.97;;;2.30;;
24557;SDS011;12726;49.148;8.582;2024-02-14T05:13:07;5.07;;;2.35;;
24557;SDS011;12726;49.148;8.582;2024-02-14T05:15:52;3.05;;;2.40;;
24557;SDS011;12726;49.148;8.582;2024-02-14T05:18:37;7.55;;;3.13;;
24557;SDS011;12726;49.148;8.582;2024-02-14T05:21:23;4.20;;;2.50;;
24557;SDS011;12726;49.148;8.582;2024-02-14T05:24:08;5.75;;;2.40;;
24557;SDS011;12726;49.148;8.582;2024-02-14T05:26:55;7.30;;;2.75;;
24557;SDS011;12726;49.148;8.582;2024-02-14T05:29:40;8.35;;;2.10;;
24557;SDS011;12726;49.148;8.582;2024-02-14T05:32:26;4.80;;;1.85;;
24557;SDS011;12726;49.148;8.582;2024-02-14T05:35:11;3.47;;;1.85;;
24557;SDS011;12726;49.148;8.582;2024-02-14T05:37:56;3.40;;;2.20;;
24557;SDS011;12726;49.148;8.582;2024-02-14T05:40:41;7.65;;;2.60;;
24557;SDS011;12726;49.148;8.582;2024-02-14T05:43:29;4.72;;;2.03;;
24557;SDS011;12726;49.148;8.582;2024-02-14T05:46:14;5.90;;;2.20;;
24557;SDS011;12726;49.148;8.582;2024-02-14T05:49:00;3.22;;;1.98;;
24557;SDS011;12726;49.148;8.582;2024-02-14T05:51:45;3.38;;;1.65;;
24557;SDS011;12726;49.148;8.582;2024-02-14T05:54:30;3.90;;;1.90;;
24557;SDS011;12726;49.148;8.582;2024-02-14T05:57:15;4.82;;;2.20;;
24557;SDS011;12726;49.148;8.582;2024-02-14T06:00:02;4.05;;;2.00;;
24557;SDS011;12726;49.148;8.582;2024-02-14T06:02:49;5.00;;;2.08;;
24557;SDS011;12726;49.148;8.582;2024-02-14T06:05:34;4.47;;;2.08;;
24557;SDS011;12726;49.148;8.582;2024-02-14T06:08:19;4.97;;;2.25;;
24557;SDS011;12726;49.148;8.582;2024-02-14T06:11:07;4.18;;;2.30;;
24557;SDS011;12726;49.148;8.582;2024-02-14T06:13:52;6.68;;;1.92;;
24557;SDS011;12726;49.148;8.582;2024-02-14T06:16:39;3.55;;;1.90;;
24557;SDS011;12726;49.148;8.582;2024-02-14T06:19:24;4.45;;;1.95;;
24557;SDS011;12726;49.148;8.582;2024-02-14T06:22:11;6.97;;;2.03;;
24557;SDS011;12726;49.148;8.582;2024-02-14T06:24:56;3.10;;;2.08;;
24557;SDS011;12726;49.148;8.582;2024-02-14T06:27:42;6.72;;;2.60;;
24557;SDS011;12726;49.148;8.582;2024-02-14T06:30:27;4.03;;;1.95;;
24557;SDS011;12726;49.148;8.582;2024-02-14T06:33:13;3.83;;;1.92;;
24557;SDS011;12726;49.148;8.582;2024-02-14T06:35:59;4.88;;;2.08;;
24557;SDS011;12726;49.148;8.582;2024-02-14T06:38:44;4.80;;;1.90;;
24557;SDS011;12726;49.148;8.582;2024-02-14T06:41:30;6.13;;;2.45;;
24557;SDS011;12726;49.148;8.582;2024-02-14T06:44:15;5.18;;;2.80;;
24557;SDS011;12726;49.148;8.582;2024-02-14T06:47:03;6.28;;;2.30;;
24557;SDS011;12726;49.148;8.582;2024-02-14T06:49:50;6.43;;;2.88;;
24557;SDS011;12726;49.148;8.582;2024-02-14T06:52:35;5.13;;;2.70;;
24557;SDS011;12726;49.148;8.582;2024-02-14T06:55:21;6.03;;;2.72;;
24557;SDS011;12726;49.148;8.582;2024-02-14T06:58:06;4.57;;;2.38;;
24557;SDS011;12726;49.148;8.582;2024-02-14T07:00:51;7.93;;;2.95;;
24557;SDS011;12726;49.148;8.582;2024-02-14T07:03:36;4.20;;;2.47;;
24557;SDS011;12726;49.148;8.582;2024-02-14T07:06:24;4.13;;;2.88;;
24557;SDS011;12726;49.148;8.582;2024-02-14T07:09:09;3.88;;;2.55;;
24557;SDS011;12726;49.148;8.582;2024-02-14T07:11:55;7.85;;;3.28;;
24557;SDS011;12726;49.148;8.582;2024-02-14T07:14:41;9.65;;;2.47;;
24557;SDS011;12726;49.148;8.582;2024-02-14T07:17:27;5.32;;;2.58;;
24557;SDS011;12726;49.148;8.582;2024-02-14T07:20:12;4.95;;;2.33;;
24557;SDS011;12726;49.148;8.582;2024-02-14T07:23:00;4.50;;;2.15;;
24557;SDS011;12726;49.148;8.582;2024-02-14T07:25:46;5.78;;;2.70;;
24557;SDS011;12726;49.148;8.582;2024-02-14T07:28:32;6.93;;;2.70;;
24557;SDS011;12726;49.148;8.582;2024-02-14T07:31:17;3.72;;;2.10;;
24557;SDS011;12726;49.148;8.582;2024-02-14T07:34:02;6.75;;;2.75;;
24557;SDS011;12726;49.148;8.582;2024-02-14T07:36:48;5.47;;;2.65;;
24557;SDS011;12726;49.148;8.582;2024-02-14T07:39:34;5.40;;;2.67;;
24557;SDS011;12726;49.148;8.582;2024-02-14T07:42:20;5.75;;;2.47;;
24557;SDS011;12726;49.148;8.582;2024-02-14T07:45:05;5.95;;;2.75;;
24557;SDS011;12726;49.148;8.582;2024-02-14T07:47:51;4.50;;;2.13;;
24557;SDS011;12726;49.148;8.582;2024-02-14T07:50:37;4.47;;;2.40;;
24557;SDS011;12726;49.148;8.582;2024-02-14T07:53:22;3.95;;;2.45;;
24557;SDS011;12726;49.148;8.582;2024-02-14T07:56:09;5.78;;;2.67;;
24557;SDS011;12726;49.148;8.582;2024-02-14T07:58:54;6.07;;;2.45;;
24557;SDS011;12726;49.148;8.582;2024-02-14T08:01:40;7.18;;;2.65;;
24557;SDS011;12726;49.148;8.582;2024-02-14T08:04:26;9.52;;;2.50;;
24557;SDS011;12726;49.148;8.582;2024-02-14T08:07:12;5.85;;;2.38;;
24557;SDS011;12726;49.148;8.582;2024-02-14T08:09:57;3.33;;;2.45;;
24557;SDS011;12726;49.148;8.582;2024-02-14T08:12:44;3.97;;;2.10;;
24557;SDS011;12726;49.148;8.582;2024-02-14T08:15:30;6.38;;;2.35;;
24557;SDS011;12726;49.148;8.582;2024-02-14T08:18:16;5.60;;;2.28;;
24557;SDS011;12726;49.148;8.582;2024-02-14T08:21:01;7.43;;;2.20;;
24557;SDS011;12726;49.148;8.582;2024-02-14T08:23:47;2.55;;;1.75;;
24557;SDS011;12726;49.148;8.582;2024-02-14T08:26:33;3.90;;;1.42;;
24557;SDS011;12726;49.148;8.582;2024-02-14T08:29:20;5.85;;;1.88;;
24557;SDS011;12726;49.148;8.582;2024-02-14T08:32:05;3.05;;;1.40;;
24557;SDS011;12726;49.148;8.582;2024-02-14T08:34:51;2.75;;;1.30;;
24557;SDS011;12726;49.148;8.582;2024-02-14T08:37:36;6.03;;;1.65;;
24557;SDS011;12726;49.148;8.582;2024-02-14T08:40:22;4.03;;;1.70;;
24557;SDS011;12726;49.148;8.582;2024-02-14T08:43:07;1.58;;;1.25;;
24557;SDS011;12726;49.148;8.582;2024-02-14T08:45:54;4.45;;;1.40;;
24557;SDS011;12726;49.148;8.582;2024-02-14T08:48:39;6.82;;;1.63;;
24557;SDS011;12726;49.148;8.582;2024-02-14T08:51:29;4.00;;;1.30;;
24557;SDS011;12726;49.148;8.582;2024-02-14T08:54:14;2.85;;;1.25;;
24557;SDS011;12726;49.148;8.582;2024-02-14T08:57:00;6.47;;;1.67;;
24557;SDS011;12726;49.148;8.582;2024-02-14T08:59:46;2.95;;;1.20;;
24557;SDS011;12726;49.148;8.582;2024-02-14T09:02:33;2.13;;;1.23;;
24557;SDS011;12726;49.148;8.582;2024-02-14T09:05:19;3.28;;;1.50;;
24557;SDS011;12726;49.148;8.582;2024-02-14T09:08:06;6.40;;;1.85;;
24557;SDS011;12726;49.148;8.582;2024-02-14T09:10:51;2.72;;;1.40;;
24557;SDS011;12726;49.148;8.582;2024-02-14T09:13:36;4.15;;;1.38;;
24557;SDS011;12726;49.148;8.582;2024-02-14T09:16:24;3.80;;;1.33;;
24557;SDS011;12726;49.148;8.582;2024-02-14T09:19:11;2.75;;;1.40;;
24557;SDS011;12726;49.148;8.582;2024-02-14T09:21:57;2.50;;;1.30;;
24557;SDS011;12726;49.148;8.582;2024-02-14T09:24:42;4.18;;;1.40;;
24557;SDS011;12726;49.148;8.582;2024-02-14T09:27:27;2.60;;;1.20;;
24557;SDS011;12726;49.148;8.582;2024-02-14T09:30:13;5.43;;;1.38;;
24557;SDS011;12726;49.148;8.582;2024-02-14T09:33:00;3.83;;;1.73;;
24557;SDS011;12726;49.148;8.582;2024-02-14T09:35:47;3.85;;;1.65;;
24557;SDS011;12726;49.148;8.582;2024-02-14T09:38:35;5.03;;;1.50;;
24557;SDS011;12726;49.148;8.582;2024-02-14T09:41:22;4.00;;;1.40;;
24557;SDS011;12726;49.148;8.582;2024-02-14T09:44:10;4.25;;;1.50;;
24557;SDS011;12726;49.148;8.582;2024-02-14T09:46:55;4.28;;;1.70;;
24557;SDS011;12726;49.148;8.582;2024-02-14T09:49:41;4.03;;;1.55;;
24557;SDS011;12726;49.148;8.582;2024-02-14T09:52:28;2.67;;;1.17;;
24557;SDS011;12726;49.148;8.582;2024-02-14T09:55:17;4.47;;;1.50;;
24557;SDS011;12726;49.148;8.582;2024-02-14T09:58:02;5.10;;;1.50;;
24557;SDS011;12726;49.148;8.582;2024-02-14T10:00:50;2.78;;;1.30;;
24557;SDS011;12726;49.148;8.582;2024-02-14T10:03:36;2.83;;;1.20;;
24557;SDS011;12726;49.148;8.582;2024-02-14T10:06:21;6.25;;;1.17;;
24557;SDS011;12726;49.148;8.582;2024-02-14T10:09:08;2.65;;;1.20;;
24557;SDS011;12726;49.148;8.582;2024-02-14T10:11:54;3.67;;;1.25;;
24557;SDS011;12726;49.148;8.582;2024-02-14T10:14:41;2.67;;;1.10;;
24557;SDS011;12726;49.148;8.582;2024-02-14T10:17:26;4.07;;;1.30;;
24557;SDS011;12726;49.148;8.582;2024-02-14T10:20:16;2.15;;;1.10;;
24557;SDS011;12726;49.148;8.582;2024-02-14T10:23:02;2.00;;;1.13;;
24557;SDS011;12726;49.148;8.582;2024-02-14T10:25:50;1.67;;;1.08;;
24557;SDS011;12726;49.148;8.582;2024-02-14T10:28:36;2.97;;;1.40;;
24557;SDS011;12726;49.148;8.582;2024-02-14T10:31:23;1.92;;;1.13;;
24557;SDS011;12726;49.148;8.582;2024-02-14T10:34:09;4.43;;;1.23;;
24557;SDS011;12726;49.148;8.582;2024-02-14T10:36:56;3.85;;;1.10;;
24557;SDS011;12726;49.148;8.582;2024-02-14T10:39:44;2.65;;;1.20;;
24557;SDS011;12726;49.148;8.582;2024-02-14T10:42:32;3.60;;;1.50;;
24557;SDS011;12726;49.148;8.582;2024-02-14T10:45:18;3.72;;;1.38;;
24557;SDS011;12726;49.148;8.582;2024-02-14T10:48:04;2.55;;;1.25;;
24557;SDS011;12726;49.148;8.582;2024-02-14T10:50:50;4.10;;;1.25;;
24557;SDS011;12726;49.148;8.582;2024-02-14T10:53:37;2.92;;;1.10;;
24557;SDS011;12726;49.148;8.582;2024-02-14T10:56:27;4.53;;;1.50;;
24557;SDS011;12726;49.148;8.582;2024-02-14T10:59:16;2.63;;;1.25;;
24557;SDS011;12726;49.148;8.582;2024-02-14T11:02:04;3.72;;;1.30;;
24557;SDS011;12726;49.148;8.582;2024-02-14T11:04:49;4.03;;;1.30;;
24557;SDS011;12726;49.148;8.582;2024-02-14T11:07:37;3.95;;;1.33;;
24557;SDS011;12726;49.148;8.582;2024-02-14T11:10:22;3.00;;;1.30;;
24557;SDS011;12726;49.148;8.582;2024-02-14T11:13:09;4.28;;;1.40;;
24557;SDS011;12726;49.148;8.582;2024-02-14T11:16:01;3.30;;;1.52;;
24557;SDS011;12726;49.148;8.582;2024-02-14T11:18:47;3.85;;;1.30;;
24557;SDS011;12726;49.148;8.582;2024-02-14T11:21:34;6.57;;;1.50;;
24557;SDS011;12726;49.148;8.582;2024-02-14T11:24:26;3.13;;;1.20;;
24557;SDS011;12726;49.148;8.582;2024-02-14T11:27:14;2.03;;;1.10;;
24557;SDS011;12726;49.148;8.582;2024-02-14T11:30:05;6.82;;;1.40;;
24557;SDS011;12726;49.148;8.582;2024-02-14T11:32:52;2.75;;;1.15;;
24557;SDS011;12726;49.148;8.582;2024-02-14T11:35:38;3.45;;;1.50;;
24557;SDS011;12726;49.148;8.582;2024-02-14T11:38:24;5.05;;;1.35;;
24557;SDS011;12726;49.148;8.582;2024-02-14T11:41:10;3.10;;;1.38;;
24557;SDS011;12726;49.148;8.582;2024-02-14T11:43:56;1.95;;;1.05;;
24557;SDS011;12726;49.148;8.582;2024-02-14T11:46:46;3.28;;;1.30;;
24557;SDS011;12726;49.148;8.582;2024-02-14T11:49:33;2.95;;;0.95;;
24557;SDS011;12726;49.148;8.582;2024-02-14T11:52:19;2.85;;;1.33;;
24557;SDS011;12726;49.148;8.582;2024-02-14T11:55:05;3.17;;;1.45;;
24557;SDS011;12726;49.148;8.582;2024-02-14T11:57:51;3.33;;;1.27;;
24557;SDS011;12726;49.148;8.582;2024-02-14T12:00:39;2.83;;;1.13;;
24557;SDS011;12726;49.148;8.582;2024-02-14T12:03:25;2.13;;;1.20;;
24557;SDS011;12726;49.148;8.582;2024-02-14T12:06:12;2.25;;;1.40;;
24557;SDS011;12726;49.148;8.582;2024-02-14T12:08:59;4.93;;;1.35;;
24557;SDS011;12726;49.148;8.582;2024-02-14T12:11:46;1.95;;;1.13;;
24557;SDS011;12726;49.148;8.582;2024-02-14T12:14:32;2.10;;;1.30;;
24557;SDS011;12726;49.148;8.582;2024-02-14T12:17:18;3.05;;;1.38;;
24557;SDS011;12726;49.148;8.582;2024-02-14T12:20:08;3.70;;;1.27;;
24557;SDS011;12726;49.148;8.582;2024-02-14T12:22:56;2.55;;;1.33;;
24557;SDS011;12726;49.148;8.582;2024-02-14T12:25:41;1.35;;;0.90;;
24557;SDS011;12726;49.148;8.582;2024-02-14T12:28:28;5.00;;;1.42;;
24557;SDS011;12726;49.148;8.582;2024-02-14T12:31:21;2.17;;;1.17;;
24557;SDS011;12726;49.148;8.582;2024-02-14T12:34:07;3.42;;;1.35;;
24557;SDS011;12726;49.148;8.582;2024-02-14T12:36:56;2.25;;;1.10;;
24557;SDS011;12726;49.148;8.582;2024-02-14T12:39:42;2.33;;;0.95;;
24557;SDS011;12726;49.148;8.582;2024-02-14T12:42:27;2.50;;;1.20;;
24557;SDS011;12726;49.148;8.582;2024-02-14T12:45:13;1.70;;;1.10;;
24557;SDS011;12726;49.148;8.582;2024-02-14T12:47:58;3.55;;;1.10;;
24557;SDS011;12726;49.148;8.582;2024-02-14T12:50:44;2.40;;;0.95;;
24557;SDS011;12726;49.148;8.582;2024-02-14T12:53:32;2.33;;;0.85;;
24557;SDS011;12726;49.148;8.582;2024-02-14T12:56:19;1.63;;;0.88;;
24557;SDS011;12726;49.148;8.582;2024-02-14T12:59:04;1.35;;;0.77;;
24557;SDS011;12726;49.148;8.582;2024-02-14T13:01:49;2.55;;;1.05;;
24557;SDS011;12726;49.148;8.582;2024-02-14T13:04:35;1.77;;;0.88;;
24557;SDS011;12726;49.148;8.582;2024-02-14T13:07:21;2.00;;;0.98;;
24557;SDS011;12726;49.148;8.582;2024-02-14T13:10:06;2.17;;;0.90;;
24557;SDS011;12726;49.148;8.582;2024-02-14T13:12:54;1.00;;;0.65;;
24557;SDS011;12726;49.148;8.582;2024-02-14T13:15:39;3.78;;;1.20;;
24557;SDS011;12726;49.148;8.582;2024-02-14T13:18:26;2.33;;;0.90;;
24557;SDS011;12726;49.148;8.582;2024-02-14T13:21:12;2.67;;;0.90;;
24557;SDS011;12726;49.148;8.582;2024-02-14T13:23:57;1.60;;;0.82;;
24557;SDS011;12726;49.148;8.582;2024-02-14T13:26:43;2.13;;;0.93;;
24557;SDS011;12726;49.148;8.582;2024-02-14T13:29:29;1.10;;;0.70;;
24557;SDS011;12726;49.148;8.582;2024-02-14T13:32:15;1.05;;;0.70;;
24557;SDS011;12726;49.148;8.582;2024-02-14T13:35:00;0.90;;;0.60;;
24557;SDS011;12726;49.148;8.582;2024-02-14T13:37:46;1.25;;;0.70;;
24557;SDS011;12726;49.148;8.582;2024-02-14T13:40:31;3.22;;;1.10;;
24557;SDS011;12726;49.148;8.582;2024-02-14T13:43:16;1.90;;;0.80;;
24557;SDS011;12726;49.148;8.582;2024-02-14T13:46:04;2.50;;;1.05;;
24557;SDS011;12726;49.148;8.582;2024-02-14T13:48:49;2.58;;;1.10;;
24557;SDS011;12726;49.148;8.582;2024-02-14T13:51:34;2.33;;;1.00;;
24557;SDS011;12726;49.148;8.582;2024-02-14T13:54:20;4.38;;;1.20;;
24557;SDS011;12726;49.148;8.582;2024-02-14T13:57:07;4.25;;;0.90;;
24557;SDS011;12726;49.148;8.582;2024-02-14T13:59:52;2.13;;;0.95;;
24557;SDS011;12726;49.148;8.582;2024-02-14T14:02:39;1.80;;;0.90;;
24557;SDS011;12726;49.148;8.582;2024-02-14T14:05:26;1.48;;;0.80;;
24557;SDS011;12726;49.148;8.582;2024-02-14T14:08:11;1.95;;;0.70;;
24557;SDS011;12726;49.148;8.582;2024-02-14T14:10:57;2.08;;;0.88;;
24557;SDS011;12726;49.148;8.582;2024-02-14T14:13:42;1.10;;;0.80;;
24557;SDS011;12726;49.148;8.582;2024-02-14T14:16:28;2.13;;;1.00;;
24557;SDS011;12726;49.148;8.582;2024-02-14T14:19:15;1.58;;;0.80;;
24557;SDS011;12726;49.148;8.582;2024-02-14T14:22:00;1.52;;;0.70;;
24557;SDS011;12726;49.148;8.582;2024-02-14T14:24:45;1.65;;;0.90;;
24557;SDS011;12726;49.148;8.582;2024-02-14T14:27:31;1.73;;;0.90;;
24557;SDS011;12726;49.148;8.582;2024-02-14T14:30:16;1.25;;;0.88;;
24557;SDS011;12726;49.148;8.582;2024-02-14T14:33:01;1.20;;;0.80;;
24557;SDS011;12726;49.148;8.582;2024-02-14T14:35:48;1.38;;;0.75;;
24557;SDS011;12726;49.148;8.582;2024-02-14T14:38:35;3.30;;;0.88;;
24557;SDS011;12726;49.148;8.582;2024-02-14T14:41:21;2.08;;;0.90;;
24557;SDS011;12726;49.148;8.582;2024-02-14T14:44:07;0.93;;;0.73;;
24557;SDS011;12726;49.148;8.582;2024-02-14T14:46:52;2.35;;;1.05;;
24557;SDS011;12726;49.148;8.582;2024-02-14T14:49:38;1.63;;;0.77;;
24557;SDS011;12726;49.148;8.582;2024-02-14T14:52:25;1.20;;;0.70;;
24557;SDS011;12726;49.148;8.582;2024-02-14T14:55:10;2.13;;;0.80;;
24557;SDS011;12726;49.148;8.582;2024-02-14T14:57:56;3.25;;;0.80;;
24557;SDS011;12726;49.148;8.582;2024-02-14T15:00:43;2.05;;;1.08;;
24557;SDS011;12726;49.148;8.582;2024-02-14T15:03:28;1.77;;;0.93;;
24557;SDS011;12726;49.148;8.582;2024-02-14T15:06:13;1.80;;;1.00;;
24557;SDS011;12726;49.148;8.582;2024-02-14T15:09:00;2.00;;;1.00;;
24557;SDS011;12726;49.148;8.582;2024-02-14T15:11:45;2.65;;;1.30;;
24557;SDS011;12726;49.148;8.582;2024-02-14T15:14:31;3.05;;;1.00;;
24557;SDS011;12726;49.148;8.582;2024-02-14T15:17:16;2.70;;;1.10;;
24557;SDS011;12726;49.148;8.582;2024-02-14T15:20:02;2.33;;;1.00;;
24557;SDS011;12726;49.148;8.582;2024-02-14T15:22:48;1.45;;;1.02;;
24557;SDS011;12726;49.148;8.582;2024-02-14T15:25:35;2.83;;;1.30;;
24557;SDS011;12726;49.148;8.582;2024-02-14T15:28:21;1.67;;;1.00;;
24557;SDS011;12726;49.148;8.582;2024-02-14T15:31:10;3.28;;;0.95;;
24557;SDS011;12726;49.148;8.582;2024-02-14T15:34:13;2.65;;;1.20;;
24557;SDS011;12726;49.148;8.582;2024-02-14T15:36:58;2.15;;;1.13;;
24557;SDS011;12726;49.148;8.582;2024-02-14T15:39:44;4.90;;;1.45;;
24557;SDS011;12726;49.148;8.582;2024-02-14T15:42:30;2.88;;;0.98;;
24557;SDS011;12726;49.148;8.582;2024-02-14T15:45:16;1.75;;;1.00;;
24557;SDS011;12726;49.148;8.582;2024-02-14T15:48:01;2.50;;;1.10;;
24557;SDS011;12726;49.148;8.582;2024-02-14T15:50:47;2.53;;;0.90;;
24557;SDS011;12726;49.148;8.582;2024-02-14T15:53:33;2.30;;;1.00;;
24557;SDS011;12726;49.148;8.582;2024-02-14T15:56:19;2.40;;;1.10;;
24557;SDS011;12726;49.148;8.582;2024-02-14T15:59:05;2.65;;;1.30;;
24557;SDS011;12726;49.148;8.582;2024-02-14T16:01:52;2.25;;;1.20;;
24557;SDS011;12726;49.148;8.582;2024-02-14T16:04:38;1.50;;;1.00;;
24557;SDS011;12726;49.148;8.582;2024-02-14T16:07:23;3.05;;;1.42;;
24557;SDS011;12726;49.148;8.582;2024-02-14T16:10:09;2.28;;;1.05;;
24557;SDS011;12726;49.148;8.582;2024-02-14T16:12:55;3.20;;;1.08;;
24557;SDS011;12726;49.148;8.582;2024-02-14T16:15:43;1.08;;;0.98;;
24557;SDS011;12726;49.148;8.582;2024-02-14T16:18:28;1.98;;;1.10;;
24557;SDS011;12726;49.148;8.582;2024-02-14T16:21:14;2.67;;;1.30;;
24557;SDS011;12726;49.148;8.582;2024-02-14T16:23:59;2.92;;;1.33;;
24557;SDS011;12726;49.148;8.582;2024-02-14T16:26:45;2.80;;;1.40;;
24557;SDS011;12726;49.148;8.582;2024-02-14T16:29:30;1.67;;;1.05;;
24557;SDS011;12726;49.148;8.582;2024-02-14T16:32:17;4.35;;;1.42;;
24557;SDS011;12726;49.148;8.582;2024-02-14T16:35:03;1.98;;;1.33;;
24557;SDS011;12726;49.148;8.582;2024-02-14T16:37:49;2.45;;;1.38;;
24557;SDS011;12726;49.148;8.582;2024-02-14T16:40:34;2.28;;;1.33;;